createdAt,value
2018-05-21T00:00:05.288Z,75.00
2018-05-21T00:02:32.775Z,75.00
2018-05-21T00:05:00.262Z,75.30
2018-05-21T00:07:28.576Z,75.50
2018-05-21T00:09:56.062Z,75.30
2018-05-21T00:12:23.542Z,75.50
2018-05-21T00:14:51.069Z,75.10
2018-05-21T00:17:18.546Z,75.80
2018-05-21T00:19:46.031Z,76.40
2018-05-21T00:22:13.547Z,77.00
2018-05-21T00:24:41.042Z,77.50
2018-05-21T00:27:08.539Z,77.80
2018-05-21T00:29:36.055Z,78.10
2018-05-21T00:32:03.539Z,78.30
2018-05-21T00:34:31.790Z,80.10
2018-05-21T00:36:59.322Z,79.70
2018-05-21T00:39:26.813Z,80.30
2018-05-21T00:41:54.295Z,80.70
2018-05-21T00:44:21.805Z,80.80
2018-05-21T00:46:49.291Z,81.40
2018-05-21T00:56:00.158Z,83.00
2018-05-21T00:58:27.679Z,83.70
2018-05-21T01:00:55.227Z,83.80
2018-05-21T01:03:22.757Z,84.20
2018-05-21T01:05:50.248Z,84.40
2018-05-21T01:08:17.738Z,84.70
2018-05-21T01:10:45.255Z,85.00
2018-05-21T01:13:12.738Z,85.30
2018-05-21T01:15:40.278Z,85.40
2018-05-21T01:18:08.008Z,86.30
2018-05-21T01:20:35.495Z,85.70
2018-05-21T01:23:02.987Z,85.80
2018-05-21T01:25:30.498Z,85.90
2018-05-21T01:27:57.984Z,86.00
2018-05-21T01:30:25.476Z,85.90
2018-05-21T01:32:53.002Z,85.60
2018-05-21T01:35:20.483Z,85.60
2018-05-21T01:37:47.977Z,85.70
2018-05-21T01:40:15.492Z,85.70
2018-05-21T01:42:42.975Z,86.50
2018-05-21T01:45:10.463Z,85.60
2018-05-21T01:47:38.794Z,85.80
2018-05-21T01:50:06.286Z,85.60
2018-05-21T01:52:33.775Z,85.90
2018-05-21T01:55:01.294Z,85.60
2018-05-21T01:57:28.783Z,86.00
2018-05-21T01:59:56.268Z,86.20
2018-05-21T02:02:23.801Z,86.40
2018-05-21T02:04:51.306Z,86.30
2018-05-21T02:07:18.788Z,86.50
2018-05-21T02:09:46.346Z,86.60
2018-05-21T02:12:13.831Z,86.60
2018-05-21T02:14:41.319Z,86.60
2018-05-21T02:17:08.826Z,86.50
2018-05-21T02:19:36.306Z,86.70
2018-05-21T02:22:03.782Z,86.80
2018-05-21T02:24:31.309Z,86.80
2018-05-21T02:26:58.821Z,86.60
2018-05-21T02:29:26.422Z,86.60
2018-05-21T02:31:53.977Z,86.80
2018-05-21T02:34:21.458Z,87.00
2018-05-21T02:36:48.947Z,87.20
2018-05-21T02:39:17.252Z,87.50
2018-05-21T02:41:44.735Z,87.50
2018-05-21T02:44:12.214Z,87.50
2018-05-21T02:46:39.729Z,87.50
2018-05-21T02:49:07.222Z,87.50
2018-05-21T02:51:34.710Z,87.20
2018-05-21T02:54:02.295Z,86.80
2018-05-21T02:56:29.786Z,86.70
2018-05-21T02:58:57.266Z,86.70
2018-05-21T03:01:24.787Z,86.70
2018-05-21T03:03:52.271Z,86.70
2018-05-21T03:06:19.749Z,86.60
2018-05-21T03:08:47.262Z,86.60
2018-05-21T03:11:14.742Z,86.30
2018-05-21T03:13:42.219Z,85.60
2018-05-21T03:16:09.783Z,85.10
2018-05-21T03:18:37.275Z,84.40
2018-05-21T03:21:04.762Z,83.70
2018-05-21T03:23:32.290Z,82.80
2018-05-21T03:25:59.775Z,82.50
2018-05-21T03:28:27.255Z,81.90
2018-05-21T03:30:54.771Z,81.30
2018-05-21T03:33:22.262Z,80.50
2018-05-21T03:35:49.743Z,80.10
2018-05-21T03:38:17.302Z,79.70
2018-05-21T03:40:44.791Z,79.10
2018-05-21T03:43:12.279Z,78.70
2018-05-21T03:45:39.808Z,78.10
2018-05-21T03:51:05.242Z,77.00
2018-05-21T03:53:32.718Z,76.40
2018-05-21T03:56:00.198Z,75.90
2018-05-21T03:58:40.247Z,73.90
2018-05-21T04:01:20.417Z,73.50
2018-05-21T04:03:54.906Z,73.40
2018-05-21T04:06:22.394Z,73.00
2018-05-21T04:08:49.880Z,72.70
2018-05-21T04:11:17.415Z,72.30
2018-05-21T04:13:44.911Z,72.20
2018-05-21T04:16:12.403Z,72.00
2018-05-21T04:18:40.047Z,71.70
2018-05-21T04:21:07.475Z,71.50
2018-05-21T04:23:34.968Z,71.30
2018-05-21T04:26:02.484Z,70.90
2018-05-21T04:28:29.974Z,70.50
2018-05-21T04:30:57.459Z,70.00
2018-05-21T04:33:24.988Z,69.80
2018-05-21T04:35:52.487Z,69.60
2018-05-21T04:38:19.978Z,69.40
2018-05-21T04:40:47.525Z,69.20
2018-05-21T04:43:15.036Z,69.30
2018-05-21T04:45:42.540Z,69.10
2018-05-21T04:48:10.062Z,68.80
2018-05-21T04:50:37.548Z,68.50
2018-05-21T04:53:05.035Z,68.00
2018-05-21T04:55:33.426Z,67.40
2018-05-21T04:58:00.914Z,67.40
2018-05-21T05:00:28.406Z,67.20
2018-05-21T05:02:55.925Z,66.90
2018-05-21T05:05:23.416Z,66.10
2018-05-21T05:07:50.902Z,66.00
2018-05-21T05:10:18.426Z,65.70
2018-05-21T05:12:45.913Z,65.50
2018-05-21T05:15:13.398Z,65.00
2018-05-21T05:17:40.935Z,64.80
2018-05-21T05:20:08.446Z,64.00
2018-05-21T05:22:35.937Z,63.60
2018-05-21T05:25:03.483Z,63.00
2018-05-21T05:27:30.972Z,62.90
2018-05-21T05:29:58.474Z,62.70
2018-05-21T05:32:25.990Z,61.40
2018-05-21T05:34:53.485Z,61.00
2018-05-21T05:37:21.507Z,60.60
2018-05-21T05:39:49.062Z,59.80
2018-05-21T05:42:16.546Z,59.20
2018-05-21T05:44:44.032Z,59.10
2018-05-21T05:47:12.352Z,58.90
2018-05-21T05:49:39.842Z,58.80
2018-05-21T05:52:07.330Z,58.70
2018-05-21T05:54:34.876Z,58.70
2018-05-21T05:57:02.371Z,58.30
2018-05-21T05:59:30.626Z,58.20
2018-05-21T06:01:58.142Z,58.20
2018-05-21T06:04:25.630Z,57.70
2018-05-21T06:06:53.126Z,57.20
2018-05-21T06:09:20.695Z,57.10
2018-05-21T06:11:48.199Z,56.90
2018-05-21T06:14:15.682Z,56.10
2018-05-21T06:16:43.235Z,55.70
2018-05-21T06:19:10.722Z,54.90
2018-05-21T06:21:38.234Z,54.60
2018-05-21T06:24:05.762Z,54.30
2018-05-21T06:26:33.242Z,53.00
2018-05-21T06:29:00.747Z,52.50
2018-05-21T06:31:28.283Z,51.90
2018-05-21T06:33:56.292Z,51.50
2018-05-21T06:36:23.722Z,50.70
2018-05-21T06:38:51.280Z,50.90
2018-05-21T06:41:18.767Z,50.40
2018-05-21T06:43:46.295Z,49.90
2018-05-21T06:46:13.818Z,50.50
2018-05-21T06:48:41.306Z,50.90
2018-05-21T06:51:08.809Z,50.20
2018-05-21T06:53:36.350Z,50.20
2018-05-21T06:56:03.862Z,50.20
2018-05-21T06:58:31.350Z,49.00
2018-05-21T07:00:58.906Z,49.40
2018-05-21T07:03:26.395Z,49.10
2018-05-21T07:05:53.876Z,48.80
2018-05-21T07:08:22.473Z,48.80
2018-05-21T07:10:49.962Z,48.80
2018-05-21T07:13:17.450Z,48.80
2018-05-21T07:15:44.986Z,48.70
2018-05-21T07:18:12.558Z,48.60
2018-05-21T07:20:39.993Z,47.90
2018-05-21T07:23:07.522Z,48.20
2018-05-21T07:25:35.012Z,47.50
2018-05-21T07:28:02.519Z,47.90
2018-05-21T07:30:30.064Z,48.00
2018-05-21T07:32:57.568Z,47.80
2018-05-21T07:35:25.064Z,47.80
2018-05-21T07:37:52.610Z,48.00
2018-05-21T07:40:20.124Z,47.40
2018-05-21T07:42:47.614Z,47.10
2018-05-21T07:45:15.971Z,47.80
2018-05-21T07:47:43.514Z,47.20
2018-05-21T07:50:11.074Z,46.80
2018-05-21T07:52:38.618Z,47.00
2018-05-21T07:55:06.130Z,46.20
2018-05-21T07:57:34.444Z,47.00
2018-05-21T08:00:02.020Z,46.90
2018-05-21T08:02:30.187Z,47.40
2018-05-21T08:04:57.691Z,47.30
2018-05-21T08:07:25.262Z,46.80
2018-05-21T08:09:52.746Z,46.90
2018-05-21T08:12:20.999Z,46.60
2018-05-21T08:14:48.565Z,46.50
2018-05-21T08:17:16.034Z,45.70
2018-05-21T08:19:44.296Z,45.00
2018-05-21T08:22:11.911Z,44.80
2018-05-21T08:24:39.343Z,44.90
2018-05-21T08:27:06.869Z,44.70
2018-05-21T08:29:34.432Z,44.70
2018-05-21T08:32:01.923Z,44.00
2018-05-21T08:34:29.410Z,44.00
2018-05-21T08:36:56.939Z,43.50
2018-05-21T08:39:25.658Z,43.30
2018-05-21T08:41:53.146Z,43.30
2018-05-21T08:44:20.690Z,42.60
2018-05-21T08:46:48.187Z,42.40
2018-05-21T08:49:15.686Z,41.40
2018-05-21T08:51:43.246Z,42.00
2018-05-21T08:54:11.067Z,41.90
2018-05-21T08:56:39.034Z,41.60
2018-05-21T08:59:07.260Z,39.70
2018-05-21T09:01:34.755Z,39.60
2018-05-21T09:04:02.300Z,39.40
2018-05-21T09:06:29.794Z,39.30
2018-05-21T09:08:57.286Z,39.00
2018-05-21T09:11:25.619Z,39.50
2018-05-21T09:13:53.178Z,39.40
2018-05-21T09:16:20.726Z,39.00
2018-05-21T09:18:48.210Z,38.70
2018-05-21T09:21:15.702Z,37.70
2018-05-21T09:23:43.190Z,38.50
2018-05-21T09:26:10.834Z,38.80
2018-05-21T09:28:39.582Z,39.50
2018-05-21T09:31:07.075Z,39.50
2018-05-21T09:33:34.642Z,38.40
2018-05-21T09:36:02.907Z,38.80
2018-05-21T09:38:30.399Z,38.70
2018-05-21T09:40:58.110Z,37.80
2018-05-21T09:43:25.610Z,37.60
2018-05-21T09:45:53.121Z,38.50
2018-05-21T09:48:20.642Z,38.60
2018-05-21T09:50:48.141Z,37.40
2018-05-21T09:53:15.847Z,37.60
2018-05-21T09:55:44.173Z,37.60
2018-05-21T09:58:11.659Z,37.60
2018-05-21T10:00:39.153Z,36.60
2018-05-21T10:03:07.460Z,35.90
2018-05-21T10:05:34.976Z,35.80
2018-05-21T10:08:02.462Z,36.50
2018-05-21T10:10:30.746Z,35.30
2018-05-21T10:12:58.234Z,35.30
2018-05-21T10:15:25.994Z,35.90
2018-05-21T10:17:53.533Z,36.00
2018-05-21T10:20:21.098Z,36.50
2018-05-21T10:22:48.583Z,36.10
2018-05-21T10:25:16.123Z,36.10
2018-05-21T10:27:43.643Z,35.90
2018-05-21T10:30:11.126Z,37.00
2018-05-21T10:32:39.447Z,37.30
2018-05-21T10:35:06.937Z,37.10
2018-05-21T10:37:34.427Z,36.40
2018-05-21T10:40:02.719Z,36.00
2018-05-21T10:42:30.226Z,35.90
2018-05-21T10:44:57.718Z,35.10
2018-05-21T10:47:26.012Z,35.00
2018-05-21T10:49:53.503Z,35.00
2018-05-21T10:52:20.995Z,35.00
2018-05-21T10:54:48.545Z,34.90
2018-05-21T10:57:16.039Z,35.30
2018-05-21T10:59:43.532Z,35.30
2018-05-21T11:02:11.110Z,33.90
2018-05-21T11:04:38.601Z,33.80
2018-05-21T11:07:06.099Z,33.60
2018-05-21T11:09:33.626Z,33.60
2018-05-21T11:12:01.162Z,34.50
2018-05-21T11:14:28.659Z,34.90
2018-05-21T11:16:56.279Z,34.00
2018-05-21T11:19:23.770Z,34.40
2018-05-21T11:21:51.270Z,33.40
2018-05-21T11:24:18.833Z,33.80
2018-05-21T11:26:46.322Z,34.00
2018-05-21T11:29:13.822Z,33.00
2018-05-21T11:31:42.155Z,33.50
2018-05-21T11:34:09.646Z,33.40
2018-05-21T11:36:37.138Z,33.30
2018-05-21T11:39:06.235Z,33.00
2018-05-21T11:41:33.732Z,33.00
2018-05-21T11:44:01.230Z,33.40
2018-05-21T11:46:28.807Z,33.60
2018-05-21T11:48:57.069Z,32.40
2018-05-21T11:51:24.571Z,32.40
2018-05-21T11:53:52.104Z,33.50
2018-05-21T11:56:20.363Z,32.40
2018-05-21T11:58:47.942Z,32.20
2018-05-21T12:01:15.415Z,32.40
2018-05-21T12:03:43.683Z,31.50
2018-05-21T12:06:11.171Z,31.40
2018-05-21T12:08:38.688Z,31.00
2018-05-21T12:11:06.199Z,31.30
2018-05-21T12:13:33.732Z,31.10
2018-05-21T12:16:01.223Z,30.10
2018-05-21T12:18:28.719Z,30.10
2018-05-21T12:20:56.218Z,29.70
2018-05-21T12:23:23.780Z,30.60
2018-05-21T12:25:51.278Z,30.70
2018-05-21T12:28:18.773Z,30.70
2018-05-21T12:30:46.307Z,28.60
2018-05-21T12:33:13.811Z,29.10
2018-05-21T12:35:42.082Z,29.60
2018-05-21T12:38:10.390Z,28.50
2018-05-21T12:40:37.913Z,28.50
2018-05-21T12:43:05.394Z,29.00
2018-05-21T12:45:32.958Z,29.20
2018-05-21T12:48:00.454Z,28.20
2018-05-21T12:50:27.942Z,28.40
2018-05-21T12:52:55.478Z,29.00
2018-05-21T12:55:22.964Z,29.00
2018-05-21T12:57:50.451Z,28.10
2018-05-21T13:00:17.966Z,28.00
2018-05-21T13:02:45.458Z,28.00
2018-05-21T13:05:13.001Z,27.80
2018-05-21T13:07:41.006Z,28.20
2018-05-21T13:10:09.266Z,27.40
2018-05-21T13:12:36.755Z,27.30
2018-05-21T13:15:04.297Z,27.20
2018-05-21T13:17:33.163Z,27.30
2018-05-21T13:20:01.048Z,27.30
2018-05-21T13:22:28.554Z,27.50
2018-05-21T13:24:56.047Z,26.90
2018-05-21T13:27:23.539Z,25.90
2018-05-21T13:29:52.788Z,26.30
2018-05-21T13:32:20.278Z,26.30
2018-05-21T13:34:47.776Z,26.60
2018-05-21T13:37:15.315Z,26.50
2018-05-21T13:39:42.854Z,26.80
2018-05-21T13:42:10.344Z,26.60
2018-05-21T13:44:38.643Z,26.20
2018-05-21T13:47:06.134Z,26.20
2018-05-21T13:49:33.622Z,26.60
2018-05-21T13:52:01.163Z,26.70
2018-05-21T13:54:28.663Z,26.70
2018-05-21T13:56:57.826Z,26.90
2018-05-21T13:59:26.146Z,26.60
2018-05-21T14:01:53.635Z,26.60
2018-05-21T14:04:21.123Z,26.40
2018-05-21T14:06:48.692Z,27.40
2018-05-21T14:09:16.183Z,26.90
2018-05-21T14:11:44.445Z,26.90
2018-05-21T14:14:11.987Z,26.90
2018-05-21T14:16:39.483Z,27.50
2018-05-21T14:19:07.739Z,27.20
2018-05-21T14:21:35.352Z,27.10
2018-05-21T14:24:02.802Z,26.90
2018-05-21T14:26:30.297Z,27.20
2018-05-21T14:28:57.832Z,27.90
2018-05-21T14:31:25.323Z,28.40
2018-05-21T14:33:52.847Z,27.80
2018-05-21T14:36:20.438Z,27.70
2018-05-21T14:38:47.931Z,27.50
2018-05-21T14:41:15.419Z,27.70
2018-05-21T14:43:42.972Z,27.90
2018-05-21T14:46:11.270Z,28.20
2018-05-21T14:48:38.813Z,28.20
2018-05-21T14:51:06.485Z,28.30
2018-05-21T14:53:33.980Z,27.60
2018-05-21T14:56:01.470Z,27.60
2018-05-21T14:58:29.030Z,27.70
2018-05-21T15:00:56.519Z,27.30
2018-05-21T15:03:24.805Z,27.60
2018-05-21T15:05:52.346Z,27.60
2018-05-21T15:08:20.619Z,28.40
2018-05-21T15:10:48.106Z,28.40
2018-05-21T15:13:16.403Z,28.50
2018-05-21T15:15:43.893Z,28.50
2018-05-21T15:18:11.377Z,28.90
2018-05-21T15:20:38.959Z,27.80
2018-05-21T15:23:07.267Z,28.30
2018-05-21T15:25:34.754Z,28.30
2018-05-21T15:28:02.274Z,27.60
2018-05-21T15:30:29.766Z,27.90
2018-05-21T15:32:57.261Z,27.70
2018-05-21T15:35:24.804Z,27.50
2018-05-21T15:37:52.299Z,27.00
2018-05-21T15:40:19.791Z,27.30
2018-05-21T15:42:47.350Z,26.80
2018-05-21T15:45:14.842Z,26.80
2018-05-21T15:47:42.339Z,26.70
2018-05-21T15:50:10.622Z,26.90
2018-05-21T15:52:38.882Z,26.40
2018-05-21T15:55:06.380Z,26.40
2018-05-21T15:57:33.997Z,26.60
2018-05-21T16:00:01.431Z,26.40
2018-05-21T16:02:28.980Z,26.50
2018-05-21T16:04:56.527Z,26.90
2018-05-21T16:07:24.009Z,26.80
2018-05-21T16:09:51.502Z,26.70
2018-05-21T16:12:19.015Z,26.60
2018-05-21T16:14:46.500Z,26.40
2018-05-21T16:17:13.991Z,26.40
2018-05-21T16:19:41.510Z,26.10
2018-05-21T16:22:08.998Z,26.20
2018-05-21T16:24:36.554Z,25.80
2018-05-21T16:27:04.125Z,25.90
2018-05-21T16:29:31.615Z,26.30
2018-05-21T16:31:59.106Z,26.40
2018-05-21T16:34:26.668Z,26.60
2018-05-21T16:36:54.179Z,26.50
2018-05-21T16:39:22.441Z,26.50
2018-05-21T16:41:49.974Z,26.50
2018-05-21T16:44:17.466Z,25.80
2018-05-21T16:46:44.961Z,25.20
2018-05-21T16:49:13.290Z,24.70
2018-05-21T16:51:40.774Z,24.70
2018-05-21T17:00:51.719Z,24.30
2018-05-21T17:03:20.024Z,26.30
2018-05-21T17:05:47.549Z,26.30
2018-05-21T17:08:15.132Z,26.70
2018-05-21T17:10:42.635Z,27.60
2018-05-21T17:13:10.123Z,28.30
2018-05-21T17:15:38.421Z,29.30
2018-05-21T17:18:05.906Z,29.30
2018-05-21T17:20:33.395Z,29.00
2018-05-21T17:23:00.930Z,29.20
2018-05-21T17:25:28.422Z,29.60
2018-05-21T17:27:55.907Z,29.60
2018-05-21T17:30:23.774Z,30.00
2018-05-21T17:32:52.097Z,31.00
2018-05-21T17:35:19.598Z,32.10
2018-05-21T17:37:47.181Z,32.40
2018-05-21T17:40:15.447Z,33.80
2018-05-21T17:42:42.972Z,33.70
2018-05-21T17:45:10.511Z,34.10
2018-05-21T17:47:38.015Z,34.20
2018-05-21T17:50:05.516Z,34.60
2018-05-21T17:52:33.056Z,35.00
2018-05-21T17:55:00.554Z,35.60
2018-05-21T17:57:28.042Z,36.10
2018-05-21T17:59:55.604Z,36.50
2018-05-21T18:02:23.095Z,36.70
2018-05-21T18:04:50.595Z,37.00
2018-05-21T18:07:18.157Z,37.20
2018-05-21T18:09:45.650Z,37.40
2018-05-21T18:12:13.143Z,37.70
2018-05-21T18:14:41.451Z,38.50
2018-05-21T18:17:08.930Z,38.50
2018-05-21T18:19:36.418Z,38.50
2018-05-21T18:22:03.951Z,38.50
2018-05-21T18:24:31.463Z,38.00
2018-05-21T18:26:58.954Z,37.80
2018-05-21T18:29:26.502Z,37.80
2018-05-21T18:31:53.991Z,38.00
2018-05-21T18:34:21.475Z,38.00
2018-05-21T18:36:48.996Z,38.20
2018-05-21T18:39:16.490Z,38.60
2018-05-21T18:41:44.062Z,38.70
2018-05-21T18:44:11.582Z,39.20
2018-05-21T18:46:39.081Z,39.60
2018-05-21T18:49:06.912Z,39.90
2018-05-21T18:56:08.872Z,40.60
2018-05-21T18:58:36.479Z,41.20
2018-05-21T19:01:03.987Z,41.60
2018-05-21T19:03:31.489Z,41.70
2018-05-21T19:05:59.125Z,42.20
2018-05-21T19:08:26.568Z,42.30
2018-05-21T19:10:54.103Z,42.40
2018-05-21T19:13:21.675Z,42.80
2018-05-21T19:15:49.460Z,42.50
2018-05-21T19:18:16.970Z,42.70
2018-05-21T19:20:44.514Z,42.90
2018-05-21T19:23:12.043Z,43.20
2018-05-21T19:25:39.636Z,43.60
2018-05-21T19:28:07.211Z,44.10
2018-05-21T19:30:34.708Z,44.90
2018-05-21T19:33:02.212Z,44.40
2018-05-21T19:35:29.762Z,44.50
2018-05-21T19:37:57.252Z,44.50
2018-05-21T19:40:24.788Z,44.70
2018-05-21T19:42:52.302Z,44.80
2018-05-21T19:45:19.794Z,45.00
2018-05-21T19:47:47.287Z,45.40
2018-05-21T19:50:14.848Z,45.50
2018-05-21T19:52:42.353Z,45.40
2018-05-21T19:55:09.838Z,45.20
2018-05-21T19:57:38.251Z,45.50
2018-05-21T20:00:05.794Z,45.40
2018-05-21T20:02:33.293Z,45.60
2018-05-21T20:05:00.818Z,45.60
2018-05-21T20:07:28.345Z,45.70
2018-05-21T20:09:55.822Z,45.80
2018-05-21T20:12:24.595Z,46.70
2018-05-21T20:14:52.078Z,46.10
2018-05-21T20:17:19.565Z,46.30
2018-05-21T20:19:47.098Z,46.60
2018-05-21T20:22:14.586Z,46.70
2018-05-21T20:24:42.079Z,46.70
2018-05-21T20:27:09.618Z,46.70
2018-05-21T20:29:37.110Z,46.70
2018-05-21T20:32:04.597Z,46.60
2018-05-21T20:34:32.118Z,46.70
2018-05-21T20:36:59.612Z,46.60
2018-05-21T20:39:27.099Z,46.70
2018-05-21T20:41:54.678Z,46.90
2018-05-21T20:44:22.166Z,47.10
2018-05-21T20:46:49.663Z,47.20
2018-05-21T20:49:17.199Z,47.30
2018-05-21T20:51:44.799Z,47.40
2018-05-21T20:54:12.408Z,47.50
2018-05-21T20:56:39.946Z,47.60
2018-05-21T20:59:07.427Z,47.90
2018-05-21T21:01:34.915Z,48.20
2018-05-21T21:04:02.503Z,48.40
2018-05-21T21:06:29.990Z,48.70
2018-05-21T21:08:57.526Z,48.90
2018-05-21T21:11:25.091Z,49.30
2018-05-21T21:13:52.577Z,49.60
2018-05-21T21:16:20.062Z,49.90
2018-05-21T21:18:47.593Z,50.10
2018-05-21T21:21:15.086Z,50.50
2018-05-21T21:23:42.600Z,50.70
2018-05-21T21:26:10.232Z,51.10
2018-05-21T21:28:37.720Z,51.50
2018-05-21T21:31:05.202Z,51.60
2018-05-21T21:33:32.722Z,51.90
2018-05-21T21:36:00.203Z,52.20
2018-05-21T21:38:27.687Z,52.40
2018-05-21T21:40:55.207Z,52.50
2018-05-21T21:43:23.459Z,52.90
2018-05-21T21:45:50.949Z,52.90
2018-05-21T21:48:18.499Z,53.00
2018-05-21T21:50:46.759Z,53.50
2018-05-21T21:53:14.242Z,53.50
2018-05-21T21:55:41.782Z,53.70
2018-05-21T21:58:09.275Z,54.10
2018-05-21T22:00:37.778Z,54.40
2018-05-21T22:03:05.310Z,54.60
2018-05-21T22:05:32.790Z,54.90
2018-05-21T22:08:00.278Z,55.10
2018-05-21T22:10:27.786Z,55.20
2018-05-21T22:12:56.055Z,55.40
2018-05-21T22:15:23.542Z,55.40
2018-05-21T22:17:51.110Z,55.50
2018-05-21T22:20:18.602Z,55.70
2018-05-21T22:22:46.096Z,56.00
2018-05-21T22:25:13.630Z,56.10
2018-05-21T22:27:41.118Z,56.30
2018-05-21T22:30:08.606Z,56.50
2018-05-21T22:32:36.153Z,56.70
2018-05-21T22:35:03.637Z,56.90
2018-05-21T22:37:31.126Z,57.20
2018-05-21T22:39:58.682Z,57.30
2018-05-21T22:42:26.432Z,57.50
2018-05-21T22:44:53.938Z,57.70
2018-05-21T22:47:21.463Z,58.00
2018-05-21T22:49:48.946Z,58.30
2018-05-21T22:52:16.439Z,58.50
2018-05-21T22:54:44.737Z,59.00
2018-05-21T22:57:12.231Z,59.00
2018-05-21T22:59:39.718Z,59.40
2018-05-21T23:02:08.048Z,60.30
2018-05-21T23:04:35.535Z,59.90
2018-05-21T23:07:03.028Z,60.20
2018-05-21T23:09:31.307Z,61.00
2018-05-21T23:11:58.802Z,61.00
2018-05-21T23:14:26.325Z,61.50
2018-05-21T23:16:53.842Z,62.00
2018-05-21T23:19:21.330Z,61.80
2018-05-21T23:21:48.818Z,62.90
2018-05-21T23:24:16.382Z,63.60
2018-05-21T23:26:43.950Z,63.80
2018-05-21T23:29:11.559Z,63.80
2018-05-21T23:31:39.114Z,64.20
2018-05-21T23:34:06.594Z,64.60
2018-05-21T23:36:34.078Z,64.50
2018-05-21T23:39:02.383Z,64.60
2018-05-21T23:41:29.874Z,64.50
2018-05-21T23:43:57.402Z,64.80
2018-05-21T23:46:24.913Z,64.80
2018-05-21T23:48:52.403Z,65.10
2018-05-21T23:51:19.885Z,65.00
2018-05-21T23:53:47.444Z,64.90
2018-05-21T23:56:14.935Z,64.60
2018-05-21T23:58:42.422Z,64.60
